Time;durP1;ratioP1;P1;durP2;ratioP2;P2;SDS_P1;SDS_P2;PMS_P1;PMS_P2;Temp;Humidity;BMP_temperature;BMP_pressure;BME280_temperature;BME280_humidity;BME280_pressure;Samples;Min_cycle;Max_cycle;Signal;HPM_P1;HPM_P2
2023/05/25 00:01:25;;;;;;;15.77;4.13;;;12.30;99.90;;;;;;4903332;29;20076;-71
2023/05/25 00:03:54;;;;;;;10.20;3.85;;;12.40;99.90;;;;;;4903139;29;20044;-71
2023/05/25 00:06:20;;;;;;;9.38;3.28;;;12.40;99.90;;;;;;4902686;29;20465;-71
2023/05/25 00:08:47;;;;;;;14.90;4.65;;;12.40;99.90;;;;;;4902946;29;20446;-71
2023/05/25 00:11:13;;;;;;;9.80;4.30;;;12.30;99.90;;;;;;4902996;29;20068;-71
2023/05/25 00:13:39;;;;;;;13.20;4.10;;;12.30;99.90;;;;;;4902877;29;20063;-71
2023/05/25 00:16:05;;;;;;;14.50;4.35;;;12.30;99.90;;;;;;4902721;29;20045;-71
2023/05/25 00:18:36;;;;;;;12.85;3.88;;;12.30;99.90;;;;;;4903140;29;20036;-71
2023/05/25 00:21:05;;;;;;;12.25;3.80;;;12.30;99.90;;;;;;4903054;29;20037;-71
2023/05/25 00:23:31;;;;;;;9.50;3.72;;;12.30;99.90;;;;;;4902732;29;20079;-71
2023/05/25 00:25:57;;;;;;;11.65;4.05;;;12.20;99.90;;;;;;4902660;29;20052;-71
2023/05/25 00:28:23;;;;;;;11.90;3.92;;;12.20;99.90;;;;;;4902753;29;20052;-71
2023/05/25 00:30:49;;;;;;;12.45;4.22;;;12.10;99.90;;;;;;4902717;29;20338;-71
2023/05/25 00:33:15;;;;;;;12.07;4.03;;;11.90;99.90;;;;;;4902682;29;20044;-72
2023/05/25 00:35:44;;;;;;;9.63;4.32;;;11.90;99.90;;;;;;4902124;29;20052;-71
2023/05/25 00:38:13;;;;;;;10.00;4.18;;;11.90;99.90;;;;;;4902540;29;20037;-71
2023/05/25 00:40:40;;;;;;;9.85;3.55;;;11.80;99.90;;;;;;4902531;29;20077;-71
2023/05/25 00:43:08;;;;;;;10.90;3.85;;;11.70;99.90;;;;;;4902255;29;20489;-71
2023/05/25 00:45:34;;;;;;;13.60;4.65;;;11.70;99.90;;;;;;4901636;29;20134;-71
2023/05/25 00:48:00;;;;;;;10.63;3.90;;;11.80;99.90;;;;;;4902458;29;20052;-71
2023/05/25 00:50:41;;;;;;;10.68;3.88;;;11.80;99.90;;;;;;4902379;29;20128;-71
2023/05/25 00:53:09;;;;;;;9.00;3.90;;;11.80;99.90;;;;;;4902240;29;20047;-71
2023/05/25 00:55:59;;;;;;;11.18;3.92;;;11.70;99.90;;;;;;4902028;29;20051;-71
2023/05/25 00:58:29;;;;;;;9.75;4.07;;;11.80;99.90;;;;;;4896980;29;20080;-71
2023/05/25 01:00:57;;;;;;;11.95;4.70;;;11.70;99.90;;;;;;4902157;29;20040;-71
2023/05/25 01:03:26;;;;;;;13.18;4.53;;;11.60;99.90;;;;;;4902148;29;20050;-71
2023/05/25 01:05:53;;;;;;;12.85;4.53;;;11.70;99.90;;;;;;4901582;29;20048;-72
2023/05/25 01:08:21;;;;;;;11.43;4.28;;;11.70;99.90;;;;;;4901975;29;20449;-71
2023/05/25 01:10:49;;;;;;;15.48;4.55;;;11.70;99.90;;;;;;4901840;29;20056;-71
2023/05/25 01:13:18;;;;;;;10.30;4.38;;;11.70;99.90;;;;;;4902048;29;20048;-72
2023/05/25 01:15:45;;;;;;;13.02;5.18;;;11.70;99.90;;;;;;4901793;29;20044;-71
2023/05/25 01:18:16;;;;;;;9.07;4.15;;;11.60;99.90;;;;;;4901982;29;20104;-71
2023/05/25 01:20:55;;;;;;;9.52;4.63;;;11.50;99.90;;;;;;4901679;29;20073;-70
2023/05/25 01:23:46;;;;;;;9.93;4.10;;;11.50;99.90;;;;;;4901620;29;20108;-70
2023/05/25 01:26:15;;;;;;;7.38;4.20;;;11.50;99.90;;;;;;4901958;29;20076;-70
2023/05/25 01:28:46;;;;;;;10.15;4.38;;;11.40;99.90;;;;;;4901541;29;20082;-71
2023/05/25 01:31:13;;;;;;;5.93;3.10;;;11.30;99.90;;;;;;4901767;29;20064;-71
2023/05/25 01:33:41;;;;;;;6.35;3.42;;;11.30;99.90;;;;;;4901629;29;20056;-71
2023/05/25 01:36:07;;;;;;;4.25;2.38;;;11.30;99.90;;;;;;4900932;29;20435;-71
2023/05/25 01:38:33;;;;;;;4.75;2.80;;;11.30;99.90;;;;;;4901625;29;20092;-71
2023/05/25 01:40:59;;;;;;;4.50;2.40;;;11.30;99.90;;;;;;4901358;29;20423;-71
2023/05/25 01:43:25;;;;;;;5.78;2.97;;;11.20;99.90;;;;;;4901464;29;20037;-71
2023/05/25 01:45:58;;;;;;;5.60;2.28;;;11.30;99.90;;;;;;4901295;29;20048;-70
2023/05/25 01:48:47;;;;;;;13.00;2.67;;;11.30;99.90;;;;;;4901450;29;20055;-71
2023/05/25 01:51:28;;;;;;;3.83;2.28;;;11.00;99.90;;;;;;4882039;29;20048;-71
2023/05/25 01:54:00;;;;;;;4.28;2.10;;;11.00;99.90;;;;;;4901355;29;20055;-71
2023/05/25 01:56:29;;;;;;;5.35;2.42;;;11.10;99.90;;;;;;4901335;29;20123;-71
2023/05/25 01:58:57;;;;;;;6.35;2.75;;;11.10;99.90;;;;;;4901450;29;20108;-71
2023/05/25 02:01:23;;;;;;;6.47;3.25;;;11.10;99.90;;;;;;4901420;29;20383;-71
2023/05/25 02:03:50;;;;;;;5.40;3.20;;;11.20;99.90;;;;;;4901502;29;20051;-71
2023/05/25 02:06:16;;;;;;;6.40;3.30;;;11.20;99.90;;;;;;4900889;29;20382;-71
2023/05/25 02:08:42;;;;;;;7.65;2.90;;;11.20;99.90;;;;;;4901369;29;20040;-71
2023/05/25 02:11:09;;;;;;;4.75;2.50;;;11.20;99.90;;;;;;4901053;29;20059;-71
2023/05/25 02:13:35;;;;;;;8.60;3.15;;;11.20;99.90;;;;;;4901458;29;20053;-71
2023/05/25 02:16:01;;;;;;;7.00;3.17;;;11.10;99.90;;;;;;4901054;29;20044;-71
2023/05/25 02:18:27;;;;;;;5.78;3.05;;;11.10;99.90;;;;;;4901077;29;20052;-73
2023/05/25 02:20:52;;;;;;;7.03;3.17;;;11.10;99.90;;;;;;4901033;29;20040;-71
2023/05/25 02:23:18;;;;;;;4.80;2.85;;;11.00;99.90;;;;;;4901073;29;20330;-71
2023/05/25 02:25:44;;;;;;;5.75;2.97;;;10.90;99.90;;;;;;4901339;29;20311;-71
2023/05/25 02:28:10;;;;;;;5.65;2.80;;;11.00;99.90;;;;;;4901154;29;20045;-71
2023/05/25 02:30:35;;;;;;;6.65;3.20;;;11.00;99.90;;;;;;4901211;29;20055;-70
2023/05/25 02:33:01;;;;;;;5.20;2.60;;;11.10;99.90;;;;;;4900994;29;20076;-70
2023/05/25 02:35:27;;;;;;;5.45;2.70;;;11.00;99.90;;;;;;4901106;29;20052;-70
2023/05/25 02:37:52;;;;;;;5.53;3.00;;;11.00;99.90;;;;;;4900444;29;20101;-71
2023/05/25 02:40:18;;;;;;;2.92;1.80;;;10.90;99.90;;;;;;4901118;29;20037;-71
2023/05/25 02:42:44;;;;;;;5.05;2.28;;;10.90;99.90;;;;;;4901168;29;20433;-70
2023/05/25 02:45:10;;;;;;;4.50;2.15;;;10.90;99.90;;;;;;4900839;29;20092;-70
2023/05/25 02:47:36;;;;;;;5.70;2.22;;;10.80;99.90;;;;;;4901036;29;20044;-70
2023/05/25 02:50:02;;;;;;;7.45;2.67;;;10.70;99.90;;;;;;4900808;29;20426;-70
2023/05/25 02:52:29;;;;;;;7.13;2.20;;;10.60;99.90;;;;;;4900969;29;20354;-70
2023/05/25 02:54:55;;;;;;;2.97;1.77;;;10.60;99.90;;;;;;4900820;29;20045;-70
2023/05/25 02:57:22;;;;;;;4.63;2.50;;;10.80;99.90;;;;;;4901005;29;20067;-70
2023/05/25 02:59:48;;;;;;;5.25;2.35;;;10.90;99.90;;;;;;4900906;29;20044;-70
2023/05/25 03:02:17;;;;;;;4.60;2.53;;;10.90;99.90;;;;;;4900803;29;20044;-70
2023/05/25 03:04:45;;;;;;;5.88;2.60;;;10.80;99.90;;;;;;4900602;29;20468;-70
2023/05/25 03:07:11;;;;;;;7.53;2.70;;;10.90;99.90;;;;;;4900426;29;20040;-71
2023/05/25 03:09:38;;;;;;;7.50;3.00;;;11.00;99.90;;;;;;4903517;29;20051;-71
2023/05/25 03:12:05;;;;;;;7.53;2.97;;;11.00;99.90;;;;;;4903933;29;20144;-70
2023/05/25 03:14:30;;;;;;;5.80;3.00;;;10.90;99.90;;;;;;4904311;29;20040;-70
2023/05/25 03:16:56;;;;;;;8.43;3.17;;;10.80;99.90;;;;;;4902979;29;20052;-70
2023/05/25 03:19:22;;;;;;;7.72;2.85;;;10.70;99.90;;;;;;4904151;29;20434;-71
2023/05/25 03:21:47;;;;;;;7.25;3.03;;;10.70;99.90;;;;;;4903785;29;20098;-70
2023/05/25 03:24:13;;;;;;;8.43;3.17;;;10.80;99.90;;;;;;4904157;29;20407;-70
2023/05/25 03:26:39;;;;;;;7.65;2.78;;;10.80;99.90;;;;;;4903813;29;20128;-70
2023/05/25 03:29:07;;;;;;;5.07;2.97;;;10.70;99.90;;;;;;4895138;29;20041;-71
2023/05/25 03:31:33;;;;;;;8.55;3.40;;;10.70;99.90;;;;;;4882593;29;20367;-71
2023/05/25 03:33:59;;;;;;;6.10;3.03;;;10.70;99.90;;;;;;4884871;29;20327;-71
2023/05/25 03:36:29;;;;;;;6.18;3.30;;;10.70;99.90;;;;;;4884581;29;20414;-71
2023/05/25 03:38:55;;;;;;;6.20;3.33;;;10.60;99.90;;;;;;4885196;29;20075;-71
2023/05/25 03:41:21;;;;;;;5.93;3.42;;;10.70;99.90;;;;;;4885003;29;20384;-70
2023/05/25 03:43:46;;;;;;;6.47;2.97;;;10.60;99.90;;;;;;4884839;29;20069;-70
2023/05/25 03:46:12;;;;;;;6.78;3.30;;;10.70;99.90;;;;;;4885059;29;20045;-70
2023/05/25 03:48:37;;;;;;;7.63;3.70;;;10.80;99.90;;;;;;4884686;29;20330;-71
2023/05/25 03:51:03;;;;;;;5.97;2.83;;;10.80;99.90;;;;;;4884584;29;20172;-71
2023/05/25 03:53:30;;;;;;;8.07;3.55;;;10.80;99.90;;;;;;4884955;29;20044;-71
2023/05/25 03:55:55;;;;;;;6.90;3.28;;;10.80;99.90;;;;;;4884697;29;20311;-71
2023/05/25 03:58:21;;;;;;;7.88;3.08;;;10.80;99.90;;;;;;4884782;29;20033;-71
2023/05/25 04:00:50;;;;;;;7.50;3.42;;;10.80;99.90;;;;;;4884582;29;20033;-71
2023/05/25 04:03:16;;;;;;;6.03;3.17;;;10.80;99.90;;;;;;4884687;29;20066;-71
2023/05/25 04:05:42;;;;;;;4.65;2.63;;;10.90;99.90;;;;;;4884428;29;20077;-71
2023/05/25 04:08:08;;;;;;;7.20;2.80;;;10.90;99.90;;;;;;4884294;29;20120;-71
2023/05/25 04:10:34;;;;;;;4.85;3.35;;;10.90;99.90;;;;;;4883951;29;20041;-69
2023/05/25 04:13:00;;;;;;;6.32;3.42;;;10.80;99.90;;;;;;4884262;29;20053;-71
2023/05/25 04:15:25;;;;;;;6.85;2.83;;;10.90;99.90;;;;;;4884198;29;20041;-71
2023/05/25 04:17:51;;;;;;;5.07;2.88;;;10.90;99.90;;;;;;4884135;29;20120;-71
2023/05/25 04:20:17;;;;;;;7.07;3.00;;;10.80;99.90;;;;;;4884281;29;20037;-71
2023/05/25 04:22:43;;;;;;;4.82;3.17;;;10.90;99.90;;;;;;4884264;29;20052;-71
2023/05/25 04:25:09;;;;;;;8.38;3.38;;;10.90;99.90;;;;;;4884365;29;20036;-71
2023/05/25 04:27:35;;;;;;;7.10;2.92;;;10.90;99.90;;;;;;4884025;29;20033;-71
2023/05/25 04:30:02;;;;;;;4.88;2.75;;;11.10;99.90;;;;;;4884093;29;20041;-71
2023/05/25 04:32:31;;;;;;;6.65;2.92;;;11.20;99.90;;;;;;4883877;29;20335;-71
2023/05/25 04:34:57;;;;;;;5.75;2.63;;;11.30;99.90;;;;;;4883887;29;20119;-71
2023/05/25 04:37:26;;;;;;;5.25;2.50;;;11.30;99.90;;;;;;4883455;29;20338;-71
2023/05/25 04:39:52;;;;;;;4.25;2.40;;;11.40;99.90;;;;;;4883962;29;20049;-71
2023/05/25 04:42:18;;;;;;;5.97;2.35;;;11.40;99.90;;;;;;4884099;29;20051;-71
2023/05/25 04:44:43;;;;;;;4.03;2.60;;;11.50;99.90;;;;;;4882878;29;20041;-71
2023/05/25 04:47:09;;;;;;;7.85;3.13;;;11.50;99.90;;;;;;4883873;29;20048;-72
2023/05/25 04:49:35;;;;;;;7.30;3.30;;;11.60;99.90;;;;;;4883866;29;20059;-71
2023/05/25 04:52:01;;;;;;;5.47;2.50;;;11.80;99.90;;;;;;4883784;29;20418;-71
2023/05/25 04:54:26;;;;;;;5.43;3.10;;;11.90;99.90;;;;;;4882676;29;20040;-71
2023/05/25 04:56:52;;;;;;;9.05;3.70;;;12.00;99.90;;;;;;4883544;29;20423;-71
2023/05/25 04:59:18;;;;;;;6.07;3.38;;;12.10;99.90;;;;;;4883734;29;20037;-71
2023/05/25 05:01:44;;;;;;;5.97;3.33;;;12.20;99.90;;;;;;4883253;29;20072;-71
2023/05/25 05:04:10;;;;;;;15.48;5.30;;;12.30;99.90;;;;;;4884038;29;20039;-71
2023/05/25 05:06:36;;;;;;;8.68;3.90;;;12.40;99.90;;;;;;4882918;29;20037;-71
2023/05/25 05:09:02;;;;;;;10.93;4.72;;;12.50;99.90;;;;;;4883789;29;20471;-71
2023/05/25 05:11:28;;;;;;;14.57;5.22;;;12.70;99.90;;;;;;4883062;29;20048;-71
2023/05/25 05:13:54;;;;;;;12.98;5.00;;;12.90;99.90;;;;;;4883467;29;20041;-71
2023/05/25 05:16:20;;;;;;;13.20;5.95;;;13.10;99.90;;;;;;4883020;29;20419;-71
2023/05/25 05:18:46;;;;;;;19.15;5.60;;;13.20;99.90;;;;;;4899873;29;20051;-71
2023/05/25 05:21:12;;;;;;;15.38;6.97;;;13.40;99.90;;;;;;4901809;29;20036;-71
2023/05/25 05:23:37;;;;;;;20.77;6.55;;;13.50;99.90;;;;;;4893152;29;20073;-72
2023/05/25 05:26:05;;;;;;;23.48;7.57;;;13.60;99.90;;;;;;4893024;29;20053;-71
2023/05/25 05:28:31;;;;;;;20.63;8.32;;;13.70;99.90;;;;;;4890347;29;20111;-71
2023/05/25 05:30:57;;;;;;;18.25;7.55;;;13.80;99.90;;;;;;4889688;29;20124;-71
2023/05/25 05:33:22;;;;;;;20.88;8.05;;;13.80;99.90;;;;;;4893165;29;20037;-71
2023/05/25 05:35:49;;;;;;;26.55;9.48;;;13.90;99.90;;;;;;4896340;29;20433;-71
2023/05/25 05:38:15;;;;;;;30.92;8.88;;;13.80;99.90;;;;;;4901413;29;20041;-71
2023/05/25 05:40:41;;;;;;;34.17;7.70;;;13.90;99.90;;;;;;4901538;29;20120;-68
2023/05/25 05:43:09;;;;;;;26.90;8.02;;;13.90;99.90;;;;;;4901649;29;20036;-69
2023/05/25 05:45:34;;;;;;;27.85;7.55;;;14.00;99.90;;;;;;4901335;29;20527;-68
2023/05/25 05:48:00;;;;;;;21.02;7.70;;;14.10;99.90;;;;;;4901545;29;20041;-68
2023/05/25 05:50:26;;;;;;;24.83;7.25;;;14.30;99.90;;;;;;4901530;29;20048;-68
2023/05/25 05:52:52;;;;;;;20.27;7.25;;;14.40;99.90;;;;;;4901582;29;20036;-68
2023/05/25 05:55:19;;;;;;;20.38;6.35;;;14.30;99.90;;;;;;4893031;29;20040;-68
2023/05/25 05:57:45;;;;;;;25.85;5.90;;;14.30;99.90;;;;;;4890999;29;20377;-68
2023/05/25 06:00:12;;;;;;;23.83;5.65;;;14.10;99.90;;;;;;4891689;29;20128;-69
2023/05/25 06:02:37;;;;;;;21.38;6.00;;;14.30;99.90;;;;;;4882578;29;20123;-68
2023/05/25 06:05:03;;;;;;;14.95;4.63;;;14.40;99.90;;;;;;4882763;29;20112;-68
2023/05/25 06:07:29;;;;;;;17.48;5.50;;;14.30;99.90;;;;;;4881127;29;20044;-68
2023/05/25 06:09:55;;;;;;;17.80;5.10;;;14.30;99.90;;;;;;4882668;29;20051;-68
2023/05/25 06:12:21;;;;;;;20.13;5.00;;;14.30;99.90;;;;;;4882363;29;20060;-68
2023/05/25 06:14:49;;;;;;;19.08;4.45;;;14.40;99.90;;;;;;4882595;29;20045;-68
2023/05/25 06:17:15;;;;;;;17.02;4.25;;;14.50;99.90;;;;;;4881462;29;20088;-68
2023/05/25 06:19:41;;;;;;;20.98;4.35;;;14.40;99.90;;;;;;4882594;29;20052;-68
2023/05/25 06:22:07;;;;;;;15.98;4.20;;;14.40;99.90;;;;;;4882738;29;20043;-68
2023/05/25 06:24:32;;;;;;;25.40;3.97;;;14.40;99.90;;;;;;4882435;29;20045;-67
2023/05/25 06:26:58;;;;;;;18.52;4.00;;;14.20;99.90;;;;;;4881548;29;20045;-67
2023/05/25 06:29:24;;;;;;;18.98;3.53;;;14.30;99.90;;;;;;4882285;29;20041;-68
2023/05/25 06:31:50;;;;;;;21.80;3.72;;;14.30;99.90;;;;;;4882508;29;20418;-68
2023/05/25 06:34:15;;;;;;;15.60;3.55;;;14.40;99.90;;;;;;4882378;29;20052;-68
2023/05/25 06:36:41;;;;;;;18.10;4.07;;;14.60;99.90;;;;;;4882119;29;20082;-69
2023/05/25 06:39:07;;;;;;;23.00;3.92;;;14.60;99.90;;;;;;4882680;29;20310;-69
2023/05/25 06:41:32;;;;;;;20.02;4.32;;;14.50;99.90;;;;;;4882302;29;20037;-71
2023/05/25 06:43:58;;;;;;;22.92;3.97;;;14.50;99.90;;;;;;4884245;29;20035;-70
2023/05/25 06:46:24;;;;;;;19.50;4.47;;;14.30;99.90;;;;;;4884924;29;20367;-70
2023/05/25 06:48:49;;;;;;;21.42;4.32;;;14.40;99.90;;;;;;4886109;29;20033;-70
2023/05/25 06:51:15;;;;;;;21.83;4.10;;;14.40;99.90;;;;;;4884871;29;20319;-70
2023/05/25 06:53:42;;;;;;;21.52;4.07;;;14.50;99.90;;;;;;4885824;29;20100;-70
2023/05/25 06:56:08;;;;;;;19.05;4.28;;;14.40;99.90;;;;;;4884777;29;20037;-70
2023/05/25 06:58:33;;;;;;;25.27;4.43;;;14.30;99.90;;;;;;4885705;29;20429;-70
2023/05/25 07:00:59;;;;;;;28.23;4.82;;;14.40;99.90;;;;;;4885758;29;20061;-71
2023/05/25 07:03:25;;;;;;;31.50;5.70;;;14.60;99.90;;;;;;4885679;29;20045;-70
2023/05/25 07:05:51;;;;;;;21.27;4.38;;;14.60;99.90;;;;;;4884839;29;20053;-70
2023/05/25 07:08:17;;;;;;;25.75;4.53;;;14.70;99.90;;;;;;4884964;29;20134;-70
2023/05/25 07:10:42;;;;;;;22.52;4.47;;;14.70;99.90;;;;;;4885512;29;20045;-70
2023/05/25 07:13:09;;;;;;;28.30;5.18;;;14.80;99.90;;;;;;4885272;29;20128;-70
2023/05/25 07:15:35;;;;;;;24.42;4.53;;;14.90;99.90;;;;;;4884471;29;20129;-69
2023/05/25 07:18:01;;;;;;;26.95;4.40;;;15.10;99.90;;;;;;4885289;29;20124;-69
2023/05/25 07:20:26;;;;;;;26.77;4.43;;;15.20;99.90;;;;;;4885165;29;20044;-69
2023/05/25 07:22:52;;;;;;;24.05;4.20;;;15.20;99.90;;;;;;4885373;29;20052;-69
2023/05/25 07:25:18;;;;;;;25.65;4.72;;;15.10;99.90;;;;;;4885167;29;20037;-69
2023/05/25 07:27:49;;;;;;;34.03;5.82;;;15.20;99.90;;;;;;4885045;29;20103;-69
2023/05/25 07:30:15;;;;;;;33.70;5.20;;;15.50;99.90;;;;;;4885041;29;20068;-69
2023/05/25 07:32:41;;;;;;;23.85;4.70;;;15.70;99.90;;;;;;4885019;29;20049;-70
2023/05/25 07:35:07;;;;;;;25.00;3.97;;;15.70;99.90;;;;;;4884976;29;20450;-70
2023/05/25 07:37:32;;;;;;;23.42;4.28;;;15.80;99.90;;;;;;4883626;29;20045;-69
2023/05/25 07:39:59;;;;;;;25.30;4.03;;;16.10;99.90;;;;;;4884954;29;20043;-69
2023/05/25 07:42:24;;;;;;;26.10;4.55;;;15.90;99.90;;;;;;4884902;29;20355;-69
2023/05/25 07:44:50;;;;;;;25.60;4.18;;;15.90;99.90;;;;;;4884813;29;20041;-69
2023/05/25 07:47:16;;;;;;;23.55;3.80;;;16.00;99.90;;;;;;4884926;29;20044;-69
2023/05/25 07:49:41;;;;;;;27.17;4.00;;;16.00;99.90;;;;;;4884988;29;20457;-68
2023/05/25 07:52:07;;;;;;;24.50;3.78;;;15.90;99.90;;;;;;4883730;29;20041;-71
2023/05/25 07:54:33;;;;;;;22.70;4.30;;;15.90;99.90;;;;;;4883095;29;20052;-70
2023/05/25 07:57:00;;;;;;;24.77;4.78;;;15.90;99.90;;;;;;4884779;29;20097;-69
2023/05/25 07:59:26;;;;;;;19.95;3.97;;;15.60;99.90;;;;;;4884751;29;20037;-69
2023/05/25 08:01:51;;;;;;;31.42;4.10;;;15.50;99.90;;;;;;4884556;29;20033;-70
2023/05/25 08:04:17;;;;;;;27.80;4.60;;;15.50;99.90;;;;;;4884545;29;20377;-69
2023/05/25 08:06:43;;;;;;;28.85;4.60;;;15.60;99.90;;;;;;4884245;29;20451;-70
2023/05/25 08:09:09;;;;;;;22.75;4.07;;;16.00;99.90;;;;;;4884597;29;20101;-69
2023/05/25 08:11:34;;;;;;;28.95;4.53;;;16.20;99.90;;;;;;4884141;29;20056;-69
2023/05/25 08:14:00;;;;;;;23.85;4.30;;;16.40;99.90;;;;;;4884280;29;20044;-70
2023/05/25 08:16:26;;;;;;;30.02;4.57;;;16.40;99.90;;;;;;4884310;29;20184;-70
2023/05/25 08:18:51;;;;;;;24.15;4.22;;;16.50;99.90;;;;;;4884549;29;20033;-70
2023/05/25 08:21:17;;;;;;;32.00;5.35;;;16.50;99.90;;;;;;4884296;29;20052;-69
2023/05/25 08:23:43;;;;;;;27.30;4.40;;;16.60;99.90;;;;;;4884176;29;20041;-70
2023/05/25 08:26:10;;;;;;;23.88;4.20;;;16.60;99.90;;;;;;4884023;29;20063;-76
2023/05/25 08:28:36;;;;;;;22.38;3.67;;;16.40;99.90;;;;;;4884373;29;20044;-76
2023/05/25 08:31:03;;;;;;;26.63;4.03;;;15.70;99.90;;;;;;4884235;29;20086;-71
2023/05/25 08:33:29;;;;;;;19.23;3.83;;;15.30;99.90;;;;;;4884053;29;20053;-71
2023/05/25 08:35:55;;;;;;;29.65;3.60;;;15.40;99.90;;;;;;4883875;29;20077;-71
2023/05/25 08:38:24;;;;;;;24.10;5.13;;;15.60;99.90;;;;;;4883685;29;20067;-72
2023/05/25 08:41:03;;;;;;;26.23;4.68;;;15.60;99.90;;;;;;4884097;29;20065;-74
2023/05/25 08:43:32;;;;;;;43.33;8.63;;;15.50;99.90;;;;;;4884026;29;20423;-72
2023/05/25 08:46:05;;;;;;;30.90;5.13;;;15.50;99.90;;;;;;4883878;29;20076;-73
2023/05/25 08:48:35;;;;;;;28.50;4.13;;;15.80;99.90;;;;;;4883884;29;20111;-70
2023/05/25 08:51:08;;;;;;;41.63;10.05;;;16.00;99.90;;;;;;4883818;29;20048;-75
2023/05/25 08:53:36;;;;;;;25.67;4.50;;;16.10;99.90;;;;;;4883990;29;20128;-70
2023/05/25 08:56:21;;;;;;;26.90;4.35;;;15.80;99.90;;;;;;4883915;29;20077;-71
2023/05/25 08:59:27;;;;;;;25.08;3.78;;;16.10;99.90;;;;;;4883673;29;20423;-71
2023/05/25 09:02:01;;;;;;;28.92;4.45;;;16.30;99.90;;;;;;4872435;29;20061;-71
2023/05/25 09:04:28;;;;;;;26.52;3.92;;;16.40;99.90;;;;;;4883312;29;20423;-70
2023/05/25 09:06:54;;;;;;;26.75;4.57;;;16.30;99.90;;;;;;4882530;29;20048;-70
2023/05/25 09:09:21;;;;;;;25.10;3.92;;;16.20;99.90;;;;;;4882428;29;20128;-71
2023/05/25 09:11:46;;;;;;;25.10;4.18;;;16.50;99.90;;;;;;4883168;29;20461;-71
2023/05/25 09:14:13;;;;;;;22.15;4.07;;;16.50;99.90;;;;;;4883153;29;20040;-71
2023/05/25 09:16:39;;;;;;;25.90;5.00;;;16.70;99.90;;;;;;4883483;29;20077;-71
2023/05/25 09:19:05;;;;;;;27.33;5.22;;;16.70;99.90;;;;;;4883336;29;20105;-70
2023/05/25 09:21:31;;;;;;;23.00;5.07;;;16.70;99.90;;;;;;4883278;29;20044;-70
2023/05/25 09:23:58;;;;;;;20.42;4.25;;;16.50;99.90;;;;;;4883392;29;20120;-71
2023/05/25 09:26:25;;;;;;;26.08;4.43;;;16.10;99.90;;;;;;4882111;29;20457;-71
2023/05/25 09:28:51;;;;;;;31.92;4.78;;;16.30;99.90;;;;;;4882934;29;20133;-71
2023/05/25 09:31:16;;;;;;;25.60;3.95;;;16.20;99.90;;;;;;4883036;29;20119;-71
2023/05/25 09:33:44;;;;;;;26.98;4.13;;;16.20;99.90;;;;;;4883148;29;20041;-71
2023/05/25 09:36:14;;;;;;;23.85;4.05;;;16.10;99.90;;;;;;4882903;29;20048;-71
2023/05/25 09:38:40;;;;;;;29.55;4.10;;;16.40;99.90;;;;;;4882803;29;20044;-71
2023/05/25 09:41:05;;;;;;;18.85;3.42;;;16.90;99.90;;;;;;4882753;29;20092;-74
2023/05/25 09:43:32;;;;;;;25.80;4.18;;;17.40;99.90;;;;;;4882724;29;20033;-69
2023/05/25 09:45:58;;;;;;;21.85;4.30;;;17.50;99.90;;;;;;4883144;29;20037;-70
2023/05/25 09:48:24;;;;;;;21.95;4.07;;;17.40;99.90;;;;;;4882878;29;20407;-71
2023/05/25 09:50:50;;;;;;;21.48;3.97;;;17.70;99.90;;;;;;4883027;29;20037;-71
2023/05/25 09:53:16;;;;;;;26.00;3.90;;;17.60;99.90;;;;;;4882710;29;20330;-72
2023/05/25 09:55:42;;;;;;;29.88;4.97;;;17.70;99.90;;;;;;4881619;29;20037;-71
2023/05/25 09:58:08;;;;;;;25.08;4.38;;;17.50;99.90;;;;;;4882792;29;20041;-70
2023/05/25 10:00:34;;;;;;;25.70;4.68;;;17.40;99.90;;;;;;4882778;29;20037;-73
2023/05/25 10:02:59;;;;;;;19.10;4.45;;;17.40;99.90;;;;;;4882842;29;20033;-69
2023/05/25 10:05:25;;;;;;;27.95;5.18;;;17.70;99.90;;;;;;4882692;29;20112;-69
2023/05/25 10:07:52;;;;;;;23.15;4.20;;;17.90;99.90;;;;;;4881245;29;20049;-69
2023/05/25 10:10:18;;;;;;;22.35;4.57;;;17.90;99.90;;;;;;4882898;29;20044;-74
2023/05/25 10:12:48;;;;;;;24.77;3.75;;;17.60;99.90;;;;;;4882493;29;20128;-73
2023/05/25 10:15:15;;;;;;;24.80;4.43;;;17.80;99.90;;;;;;4883026;29;20117;-69
2023/05/25 10:17:53;;;;;;;25.27;4.40;;;17.50;99.90;;;;;;4884363;29;20041;-69
2023/05/25 10:20:22;;;;;;;30.15;5.20;;;17.40;99.90;;;;;;4885654;29;20343;-69
2023/05/25 10:22:53;;;;;;;30.35;4.60;;;17.60;99.90;;;;;;4886281;29;20319;-70
2023/05/25 10:25:34;;;;;;;24.33;5.10;;;17.90;99.90;;;;;;4886281;29;20045;-69
2023/05/25 10:28:13;;;;;;;25.60;5.30;;;18.00;99.90;;;;;;4885470;29;20288;-72
2023/05/25 10:30:40;;;;;;;28.70;4.57;;;17.70;99.90;;;;;;4886350;29;20422;-70
2023/05/25 10:33:06;;;;;;;35.63;4.75;;;17.50;99.90;;;;;;4886008;29;20045;-70
2023/05/25 10:35:33;;;;;;;27.38;5.18;;;17.90;99.90;;;;;;4885855;29;20037;-70
2023/05/25 10:38:00;;;;;;;21.25;4.43;;;18.20;99.90;;;;;;4886107;29;20049;-70
2023/05/25 10:40:26;;;;;;;26.38;4.15;;;18.40;99.90;;;;;;4886158;29;20047;-70
2023/05/25 10:42:52;;;;;;;24.95;4.68;;;18.20;99.90;;;;;;4886271;29;20037;-69
2023/05/25 10:45:19;;;;;;;23.88;4.05;;;17.90;99.90;;;;;;4886160;29;20321;-69
2023/05/25 10:47:45;;;;;;;23.38;4.10;;;17.40;99.90;;;;;;4885949;29;20177;-70
2023/05/25 10:50:25;;;;;;;20.55;4.07;;;17.50;99.90;;;;;;4885646;29;20055;-70
2023/05/25 10:53:20;;;;;;;20.25;3.97;;;17.80;99.90;;;;;;4885969;29;20415;-71
2023/05/25 10:55:52;;;;;;;24.27;4.53;;;18.70;99.90;;;;;;4877431;29;20049;-69
2023/05/25 10:58:20;;;;;;;18.65;4.15;;;19.20;99.90;;;;;;4885558;29;20044;-70
2023/05/25 11:01:02;;;;;;;20.95;4.07;;;18.90;99.90;;;;;;4885833;29;20033;-70
2023/05/25 11:03:43;;;;;;;24.10;4.22;;;19.20;99.90;;;;;;4885659;29;20423;-69
2023/05/25 11:06:10;;;;;;;34.47;4.47;;;18.80;99.90;;;;;;4884666;29;20131;-69
2023/05/25 11:08:49;;;;;;;21.95;4.07;;;18.70;99.90;;;;;;4885371;29;20045;-69
2023/05/25 11:11:15;;;;;;;28.48;4.88;;;18.60;99.90;;;;;;4885365;29;20076;-69
2023/05/25 11:13:48;;;;;;;23.75;4.80;;;18.80;99.90;;;;;;4885757;29;20052;-69
2023/05/25 11:16:26;;;;;;;25.02;4.20;;;19.00;99.90;;;;;;4885388;29;20049;-69
2023/05/25 11:18:58;;;;;;;27.60;4.40;;;18.60;99.90;;;;;;4885368;29;20427;-69
2023/05/25 11:21:26;;;;;;;26.40;4.93;;;18.30;99.90;;;;;;4885150;29;20036;-69
2023/05/25 11:24:02;;;;;;;26.42;4.32;;;18.60;99.90;;;;;;4884159;29;20041;-69
2023/05/25 11:26:28;;;;;;;;;;;18.50;99.90;;;;;;4885735;29;20491;-69
2023/05/25 11:28:55;;;;;;;25.23;4.63;;;18.50;99.90;;;;;;4884430;29;19920;-69
2023/05/25 11:31:35;;;;;;;19.27;4.18;;;19.00;99.90;;;;;;4885065;29;20036;-69
2023/05/25 11:34:05;;;;;;;16.30;4.00;;;19.20;99.90;;;;;;4884241;29;20363;-69
2023/05/25 11:36:33;;;;;;;19.00;3.92;;;19.60;99.90;;;;;;4884981;29;20041;-69
2023/05/25 11:39:04;;;;;;;17.80;3.35;;;20.10;99.90;;;;;;4885248;29;20033;-69
2023/05/25 11:41:33;;;;;;;18.90;3.80;;;20.40;99.90;;;;;;4885159;29;20304;-71
2023/05/25 11:44:05;;;;;;;18.73;3.92;;;20.70;99.90;;;;;;4884951;29;20056;-71
2023/05/25 11:46:33;;;;;;;17.33;3.65;;;20.40;99.90;;;;;;4884664;29;20308;-69
2023/05/25 11:48:59;;;;;;;20.80;4.07;;;20.40;99.90;;;;;;4884669;29;20458;-69
2023/05/25 11:51:27;;;;;;;21.10;3.88;;;20.00;99.90;;;;;;4884896;29;20383;-69
2023/05/25 11:53:53;;;;;;;21.02;3.72;;;19.70;99.90;;;;;;4884637;29;20458;-69
2023/05/25 11:56:21;;;;;;;16.30;4.10;;;19.40;99.90;;;;;;4884656;29;20045;-69
2023/05/25 11:58:49;;;;;;;22.38;4.28;;;19.70;99.90;;;;;;4884557;29;20048;-70
2023/05/25 12:01:23;;;;;;;18.00;4.03;;;20.00;99.90;;;;;;4884618;29;20330;-69
2023/05/25 12:03:55;;;;;;;25.60;4.00;;;20.40;99.90;;;;;;4884754;29;20041;-69
2023/05/25 12:06:28;;;;;;;21.45;3.92;;;19.90;99.90;;;;;;4884870;29;20049;-69
2023/05/25 12:08:55;;;;;;;23.85;4.03;;;19.00;99.90;;;;;;4884509;29;20049;-70
2023/05/25 12:11:28;;;;;;;30.58;4.35;;;18.90;99.90;;;;;;4884289;29;20128;-70
2023/05/25 12:13:54;;;;;;;26.48;4.72;;;19.20;99.90;;;;;;4884360;29;20104;-69
2023/05/25 12:16:21;;;;;;;21.45;3.83;;;19.40;99.90;;;;;;4884068;29;20057;-69
2023/05/25 12:18:46;;;;;;;20.73;4.25;;;19.50;99.90;;;;;;4884325;29;20041;-70
2023/05/25 12:21:12;;;;;;;18.50;4.10;;;20.00;99.90;;;;;;4884305;29;20044;-72
2023/05/25 12:23:38;;;;;;;17.85;4.13;;;20.40;99.90;;;;;;4884391;29;20076;-71
2023/05/25 12:26:15;;;;;;;24.55;4.57;;;20.50;99.90;;;;;;4883925;29;20056;-71
2023/05/25 12:28:56;;;;;;;19.80;3.58;;;20.20;99.90;;;;;;4884304;29;20055;-71
2023/05/25 12:31:23;;;;;;;28.80;5.25;;;20.00;99.90;;;;;;4884181;29;20084;-70
2023/05/25 12:34:11;;;;;;;22.48;5.30;;;20.10;99.90;;;;;;4884110;29;20048;-71
2023/05/25 12:36:41;;;;;;;24.65;4.22;;;19.50;99.90;;;;;;4883627;29;20049;-71
2023/05/25 12:39:08;;;;;;;24.88;4.50;;;19.50;99.90;;;;;;4883617;29;20388;-71
2023/05/25 12:41:47;;;;;;;23.73;4.57;;;18.90;99.90;;;;;;4883978;29;20048;-71
2023/05/25 12:44:22;;;;;;;18.90;4.18;;;19.20;99.90;;;;;;4883737;29;20041;-71